Time;durP1;ratioP1;P1;durP2;ratioP2;P2;SDS_P1;SDS_P2;PMS_P1;PMS_P2;Temp;Humidity;BMP_temperature;BMP_pressure;BME280_temperature;BME280_humidity;BME280_pressure;Samples;Min_cycle;Max_cycle;Signal;HPM_P1;HPM_P2
2022/09/13 00:00:17;;;;;;;1.70;1.25;;;;;;;23.47;38.41;98293.91;5073362;28;20032;-77
2022/09/13 00:02:42;;;;;;;1.60;1.10;;;;;;;23.47;38.55;98295.78;5074355;28;20059;-79
2022/09/13 00:05:08;;;;;;;1.67;1.10;;;;;;;23.46;38.47;98297.59;5074261;28;20388;-77
2022/09/13 00:07:33;;;;;;;1.50;1.00;;;;;;;23.48;38.53;98305.38;5073400;28;20039;-77
2022/09/13 00:09:59;;;;;;;2.67;1.33;;;;;;;23.47;38.38;98304.56;5074281;28;20032;-79
2022/09/13 00:12:24;;;;;;;1.98;1.25;;;;;;;23.44;38.48;98309.53;5074601;28;20476;-78
2022/09/13 00:14:50;;;;;;;1.27;1.00;;;;;;;23.46;38.25;98310.94;5072787;28;20058;-79
2022/09/13 00:17:16;;;;;;;1.70;0.90;;;;;;;23.42;38.16;98301.75;5072748;28;20025;-78
2022/09/13 00:19:41;;;;;;;3.42;1.25;;;;;;;23.43;38.43;98298.03;5072780;28;20036;-78
2022/09/13 00:22:07;;;;;;;1.60;1.10;;;;;;;23.47;38.48;98314.44;5072709;28;20460;-78
2022/09/13 00:24:32;;;;;;;1.83;1.25;;;;;;;23.46;38.12;98312.78;5072416;28;20028;-79
2022/09/13 00:26:59;;;;;;;1.42;1.10;;;;;;;23.43;38.21;98314.00;5056088;28;20028;-79
2022/09/13 00:29:25;;;;;;;1.83;1.05;;;;;;;23.37;38.15;98300.72;5056020;28;20480;-79
2022/09/13 00:31:51;;;;;;;1.40;1.10;;;;;;;23.42;37.65;98322.22;5056261;28;20070;-79
2022/09/13 00:34:16;;;;;;;1.45;1.00;;;;;;;23.38;37.67;98313.81;5073592;28;20059;-79
2022/09/13 00:36:42;;;;;;;1.33;1.00;;;;;;;23.35;37.84;98316.09;5055538;28;20063;-79
2022/09/13 00:39:08;;;;;;;1.77;1.20;;;;;;;23.28;37.59;98313.47;5073518;28;20033;-79
2022/09/13 00:41:34;;;;;;;1.40;1.15;;;;;;;23.24;37.53;98318.38;5055898;28;20067;-79
2022/09/13 00:44:00;;;;;;;1.60;1.20;;;;;;;23.15;37.73;98302.84;5054972;28;20503;-79
2022/09/13 00:46:43;;;;;;;1.70;1.23;;;;;;;23.18;37.94;98316.53;5071834;28;20082;-79
2022/09/13 00:49:21;;;;;;;2.10;1.30;;;;;;;23.15;37.96;98309.00;5054822;28;20032;-80
2022/09/13 00:51:49;;;;;;;3.03;1.38;;;;;;;23.13;38.36;98311.03;5073713;28;20032;-79
2022/09/13 00:54:15;;;;;;;2.08;1.30;;;;;;;23.10;38.49;98322.09;5055824;28;20459;-79
2022/09/13 00:56:43;;;;;;;1.20;1.05;;;;;;;23.08;38.65;98326.81;5055441;28;20068;-79
2022/09/13 00:59:13;;;;;;;1.80;1.33;;;;;;;23.04;38.69;98322.88;5071172;28;20036;-80
2022/09/13 01:01:48;;;;;;;1.60;1.17;;;;;;;23.03;38.66;98329.25;5044168;28;20028;-78
2022/09/13 01:04:15;;;;;;;1.83;1.30;;;;;;;23.04;38.56;98325.56;5072264;28;20028;-79
2022/09/13 01:06:40;;;;;;;2.92;1.50;;;;;;;23.03;38.54;98322.09;5047688;28;20028;-80
2022/09/13 01:09:06;;;;;;;1.50;1.10;;;;;;;23.01;38.57;98328.63;5063790;28;20408;-79
2022/09/13 01:11:31;;;;;;;2.83;1.45;;;;;;;23.01;38.67;98326.81;5063625;28;20405;-80
2022/09/13 01:13:57;;;;;;;1.63;1.23;;;;;;;23.00;38.27;98325.16;5071688;28;20028;-79
2022/09/13 01:16:22;;;;;;;1.75;1.20;;;;;;;22.95;38.44;98317.78;5063694;28;20033;-79
2022/09/13 01:18:48;;;;;;;1.70;1.30;;;;;;;22.97;38.35;98327.44;5063837;28;20108;-80
2022/09/13 01:21:41;;;;;;;2.38;1.30;;;;;;;22.92;38.59;98318.22;5062997;28;20405;-78
2022/09/13 01:24:15;;;;;;;3.35;1.15;;;;;;;22.91;38.39;98321.91;5082556;28;20025;-78
2022/09/13 01:27:16;;;;;;;1.88;1.20;;;;;;;22.88;38.41;98322.31;5072824;28;20390;-79
2022/09/13 01:29:58;;;;;;;2.22;1.40;;;;;;;22.85;38.76;98321.91;5026848;28;20030;-79
2022/09/13 01:32:38;;;;;;;2.03;1.23;;;;;;;22.83;38.65;98327.41;4994269;28;20032;-80
2022/09/13 01:35:10;;;;;;;3.33;1.38;;;;;;;22.75;38.32;98317.81;5024470;28;20030;-80
2022/09/13 01:38:01;;;;;;;3.90;1.50;;;;;;;22.77;38.58;98325.59;5012414;28;20479;-80
2022/09/13 01:41:02;;;;;;;1.95;1.30;;;;;;;22.78;38.96;98329.88;4998841;28;20090;-80
2022/09/13 01:43:46;;;;;;;2.53;1.30;;;;;;;22.75;39.03;98331.09;4962018;28;20487;-80
2022/09/13 01:46:21;;;;;;;2.00;1.35;;;;;;;22.73;38.99;98319.88;4961029;28;20374;-80
2022/09/13 01:48:59;;;;;;;2.97;1.40;;;;;;;22.73;38.90;98324.38;4961603;28;20044;-81
2022/09/13 01:51:27;;;;;;;3.50;1.20;;;;;;;22.73;39.02;98329.69;4960397;28;20045;-80
2022/09/13 01:54:05;;;;;;;2.55;1.30;;;;;;;22.71;39.39;98337.06;4944793;28;20047;-79
2022/09/13 01:57:02;;;;;;;3.60;1.40;;;;;;;22.68;39.53;98329.50;4945181;28;20057;-80
2022/09/13 01:59:49;;;;;;;1.55;1.20;;;;;;;22.65;39.35;98332.56;4946393;28;20071;-79
2022/09/13 02:02:25;;;;;;;3.63;1.47;;;;;;;22.61;39.22;98313.50;4951908;28;20050;-78
2022/09/13 02:04:56;;;;;;;1.95;1.30;;;;;;;22.62;39.23;98325.00;4954758;28;20066;-79
2022/09/13 02:07:35;;;;;;;1.98;1.20;;;;;;;22.59;39.73;98318.22;5014194;28;20099;-79
2022/09/13 02:10:25;;;;;;;2.95;1.42;;;;;;;22.57;39.72;98318.44;4998968;28;20505;-79
2022/09/13 02:12:51;;;;;;;1.55;1.27;;;;;;;22.55;39.43;98317.84;4936419;29;20046;-79
2022/09/13 02:15:19;;;;;;;1.75;1.50;;;;;;;22.53;39.40;98314.56;4952480;29;20043;-79
2022/09/13 02:17:51;;;;;;;2.08;1.40;;;;;;;22.48;39.74;98314.34;4963259;28;20071;-79
2022/09/13 02:20:20;;;;;;;2.13;1.45;;;;;;;22.51;39.58;98321.09;4994097;28;20052;-79
2022/09/13 02:22:49;;;;;;;2.00;1.30;;;;;;;22.46;39.48;98323.56;5010264;28;20473;-80
2022/09/13 02:25:16;;;;;;;3.00;1.38;;;;;;;22.43;39.43;98321.31;4994190;28;20056;-80
2022/09/13 02:27:44;;;;;;;3.08;1.60;;;;;;;22.46;39.74;98326.22;5010680;28;20038;-79
2022/09/13 02:30:10;;;;;;;2.03;1.40;;;;;;;22.47;39.78;98336.66;5010095;28;20120;-79
2022/09/13 02:32:48;;;;;;;2.78;1.65;;;;;;;22.44;39.80;98328.25;4994160;28;20125;-78
2022/09/13 02:35:17;;;;;;;1.70;1.30;;;;;;;22.42;40.03;98347.06;5009724;28;20037;-78
2022/09/13 02:37:44;;;;;;;2.17;1.45;;;;;;;22.38;39.92;98327.25;5010125;28;20120;-78
2022/09/13 02:40:14;;;;;;;3.08;1.45;;;;;;;22.39;39.86;98336.84;5009856;28;20065;-78
2022/09/13 02:42:46;;;;;;;2.63;1.30;;;;;;;22.41;40.08;98345.44;4993350;28;20141;-78
2022/09/13 02:45:11;;;;;;;1.70;1.30;;;;;;;22.36;40.17;98339.91;5010309;28;20481;-78
2022/09/13 02:47:39;;;;;;;2.42;1.33;;;;;;;22.39;39.89;98339.50;5029483;28;20061;-78
2022/09/13 02:50:23;;;;;;;2.03;1.33;;;;;;;22.38;40.06;98351.97;5068260;28;20036;-78
2022/09/13 02:52:51;;;;;;;4.45;1.50;;;;;;;22.36;39.98;98351.38;5092341;28;20111;-78
2022/09/13 02:55:20;;;;;;;2.17;1.30;;;;;;;22.29;40.16;98339.84;5091003;28;20024;-78
2022/09/13 02:57:55;;;;;;;2.65;1.40;;;;;;;22.31;40.25;98350.31;5089880;28;20101;-78
2022/09/13 03:00:21;;;;;;;1.80;1.27;;;;;;;22.21;39.96;98340.88;5092414;28;20114;-78
2022/09/13 03:02:47;;;;;;;2.35;1.33;;;;;;;22.25;39.71;98348.44;5090728;28;20032;-78
2022/09/13 03:05:12;;;;;;;4.05;1.48;;;;;;;22.21;40.16;98340.88;5090851;28;20031;-78
2022/09/13 03:07:37;;;;;;;2.17;1.38;;;;;;;22.18;40.31;98340.47;5091925;28;20032;-78
2022/09/13 03:10:06;;;;;;;2.00;1.40;;;;;;;22.09;40.36;98325.72;5089861;28;20538;-78
2022/09/13 03:12:50;;;;;;;;;;;;;;;22.13;40.18;98340.25;5091150;28;20445;-78
2022/09/13 03:15:21;;;;;;;2.70;1.50;;;;;;;22.06;40.79;98332.28;5090575;28;19908;-78
2022/09/13 03:18:16;;;;;;;1.77;1.35;;;;;;;22.02;40.72;98339.81;5094337;28;20032;-78
2022/09/13 03:21:24;;;;;;;3.38;1.60;;;;;;;22.03;40.65;98351.28;5013572;28;20052;-78
2022/09/13 03:24:12;;;;;;;2.83;1.27;;;;;;;22.01;40.72;98348.81;5009370;28;20527;-78
2022/09/13 03:26:41;;;;;;;2.03;1.20;;;;;;;22.00;40.88;98341.03;4997239;28;20034;-78
2022/09/13 03:29:09;;;;;;;;;;;;;;;21.98;40.88;98343.06;5013712;28;20072;-78
2022/09/13 03:31:56;;;;;;;1.80;1.38;;;;;;;21.94;41.05;98336.53;5013222;28;20070;-78
2022/09/13 03:34:22;;;;;;;1.92;1.30;;;;;;;21.93;41.06;98335.69;4996639;28;20034;-78
2022/09/13 03:36:47;;;;;;;3.55;1.30;;;;;;;21.93;41.14;98342.84;5013517;28;20026;-78
2022/09/13 03:39:15;;;;;;;1.80;1.27;;;;;;;21.92;40.74;98342.03;5013434;28;20433;-79
2022/09/13 03:41:43;;;;;;;2.53;1.30;;;;;;;21.90;41.16;98337.94;5013090;28;20022;-77
2022/09/13 03:44:10;;;;;;;1.60;1.25;;;;;;;21.88;40.99;98337.31;4996459;28;20053;-78
2022/09/13 03:46:38;;;;;;;2.70;1.50;;;;;;;21.85;41.03;98338.53;4980407;28;20497;-78
2022/09/13 03:49:07;;;;;;;2.55;1.50;;;;;;;21.85;40.84;98339.38;4980976;28;20050;-77
2022/09/13 03:51:33;;;;;;;1.60;1.20;;;;;;;21.82;41.21;98338.94;4996962;28;20513;-77
2022/09/13 03:54:00;;;;;;;2.42;1.05;;;;;;;21.87;40.83;98347.13;4996329;28;20026;-78
2022/09/13 03:56:26;;;;;;;2.03;1.37;;;;;;;21.87;41.11;98341.81;4996154;28;20041;-78
2022/09/13 03:58:51;;;;;;;2.03;1.20;;;;;;;21.88;41.09;98345.28;5074583;28;20348;-78
2022/09/13 04:01:18;;;;;;;2.30;1.38;;;;;;;21.86;40.93;98341.00;5074581;28;20036;-77
2022/09/13 04:03:44;;;;;;;2.37;1.30;;;;;;;21.88;40.73;98337.31;5040166;28;20369;-78
2022/09/13 04:06:09;;;;;;;2.38;1.35;;;;;;;21.95;40.70;98352.28;5057005;28;20032;-79
2022/09/13 04:08:35;;;;;;;2.53;1.40;;;;;;;22.01;40.68;98346.16;5055699;28;20036;-80
2022/09/13 04:11:00;;;;;;;2.97;1.30;;;;;;;22.05;40.63;98344.72;5056177;28;20036;-78
2022/09/13 04:13:27;;;;;;;1.40;1.20;;;;;;;22.14;40.32;98353.34;5039530;28;20040;-78
2022/09/13 04:15:53;;;;;;;2.65;1.35;;;;;;;23.13;38.55;98356.28;5056364;28;20040;-79
2022/09/13 04:18:18;;;;;;;5.20;1.20;;;;;;;24.15;36.26;98337.91;5056639;28;20049;-79
2022/09/13 04:20:44;;;;;;;1.35;1.10;;;;;;;25.13;34.45;98351.72;5056399;28;20051;-80
2022/09/13 04:23:09;;;;;;;1.40;1.00;;;;;;;25.96;32.65;98347.69;5039500;28;20067;-79
2022/09/13 04:25:37;;;;;;;1.85;1.15;;;;;;;26.72;31.23;98344.56;5072923;28;20033;-79
2022/09/13 04:28:03;;;;;;;3.70;1.08;;;;;;;27.24;29.79;98346.53;5039400;28;20472;-79
2022/09/13 04:30:29;;;;;;;1.88;1.00;;;;;;;26.60;30.82;98359.75;5056533;28;20113;-78
2022/09/13 04:32:57;;;;;;;2.17;1.10;;;;;;;26.03;31.26;98352.16;5055776;28;20043;-79
2022/09/13 04:35:22;;;;;;;2.78;0.98;;;;;;;25.71;32.00;98361.16;5074052;28;20051;-78
2022/09/13 04:37:48;;;;;;;2.83;1.08;;;;;;;25.41;32.48;98353.09;5055805;28;20052;-79
2022/09/13 04:40:13;;;;;;;1.25;0.90;;;;;;;26.14;31.36;98356.72;5056061;28;20397;-78
2022/09/13 04:42:39;;;;;;;4.68;1.00;;;;;;;27.61;29.22;98365.03;5072829;28;20101;-79
2022/09/13 04:45:05;;;;;;;1.23;0.90;;;;;;;28.75;27.49;98365.25;5086075;28;20403;-80
2022/09/13 04:47:31;;;;;;;2.20;0.80;;;;;;;28.98;27.18;98361.59;5092581;28;20133;-79
2022/09/13 04:49:56;;;;;;;1.38;0.95;;;;;;;27.94;28.60;98358.16;5075846;28;20032;-80
2022/09/13 04:52:22;;;;;;;2.25;1.08;;;;;;;27.42;29.22;98373.25;5059098;28;20111;-78
2022/09/13 04:54:48;;;;;;;1.50;0.93;;;;;;;27.04;29.44;98371.00;5092194;28;20031;-79
2022/09/13 04:57:15;;;;;;;1.60;0.93;;;;;;;26.75;30.06;98376.22;5093780;28;20471;-78
2022/09/13 04:59:41;;;;;;;2.38;0.90;;;;;;;26.50;30.62;98384.41;5058932;28;20110;-79
2022/09/13 05:02:06;;;;;;;2.03;1.02;;;;;;;26.27;30.58;98383.31;5093537;28;20059;-80
2022/09/13 05:04:32;;;;;;;1.52;1.00;;;;;;;26.12;31.95;98383.72;5092523;28;20028;-80
2022/09/13 05:06:58;;;;;;;2.00;0.90;;;;;;;25.94;31.84;98383.72;5091724;28;20040;-80
2022/09/13 05:09:23;;;;;;;2.97;0.90;;;;;;;25.78;32.21;98380.63;5093406;28;20080;-80
2022/09/13 05:11:49;;;;;;;1.20;0.90;;;;;;;25.70;32.42;98386.28;5093999;28;20028;-80
2022/09/13 05:14:14;;;;;;;1.95;0.90;;;;;;;25.58;32.58;98388.06;5075206;28;20491;-78
2022/09/13 05:16:40;;;;;;;1.73;1.00;;;;;;;25.51;33.04;98396.16;5058631;28;20415;-78
2022/09/13 05:19:05;;;;;;;2.53;1.10;;;;;;;25.52;33.40;98396.97;5075563;28;20039;-77
2022/09/13 05:21:31;;;;;;;1.88;1.05;;;;;;;25.93;32.75;98392.78;5091723;28;20047;-79
2022/09/13 05:23:56;;;;;;;2.85;1.10;;;;;;;26.58;31.89;98397.47;5075130;28;20031;-80
2022/09/13 05:26:23;;;;;;;2.13;1.10;;;;;;;27.50;30.04;98404.22;5092603;28;20501;-80
2022/09/13 05:28:48;;;;;;;2.47;0.90;;;;;;;27.66;30.39;98407.22;5075120;28;20078;-78
2022/09/13 05:31:18;;;;;;;4.35;0.90;;;;;;;28.99;28.32;98404.31;5075295;28;20032;-76
2022/09/13 05:33:44;;;;;;;10.55;1.20;;;;;;;30.64;26.71;98414.47;5092402;28;20028;-77
2022/09/13 05:36:09;;;;;;;17.75;1.60;;;;;;;30.95;25.79;98402.06;5092417;28;20028;-78
2022/09/13 05:38:35;;;;;;;20.08;2.42;;;;;;;31.15;24.98;98414.06;5058310;28;20453;-81
2022/09/13 05:41:01;;;;;;;18.05;2.90;;;;;;;31.54;24.45;98411.91;5058162;28;20063;-81
2022/09/13 05:43:28;;;;;;;19.33;2.80;;;;;;;32.78;23.52;98420.34;5075140;28;20918;-76
2022/09/13 05:46:07;;;;;;;19.27;2.50;;;;;;;33.71;21.91;98411.03;5057994;28;20060;-91
2022/09/13 05:48:33;;;;;;;10.90;2.70;;;;;;;34.38;21.10;98416.13;5075684;28;20102;-79
2022/09/13 05:51:15;;;;;;;13.90;3.45;;;;;;;34.97;20.32;98411.63;5092150;28;20032;-79
2022/09/13 05:53:44;;;;;;;18.02;3.65;;;;;;;34.74;20.56;98402.34;5096948;28;20030;-87
2022/09/13 05:56:15;;;;;;;13.45;3.03;;;;;;;34.21;21.39;98405.66;5094846;28;20100;-82
2022/09/13 05:58:42;;;;;;;20.55;3.40;;;;;;;33.76;21.75;98417.53;5074916;28;20213;-82
2022/09/13 06:01:09;;;;;;;23.50;2.78;;;;;;;34.68;20.37;98411.59;5074990;28;20458;-85
2022/09/13 06:03:35;;;;;;;17.42;3.15;;;;;;;34.84;20.32;98409.59;5090941;28;20119;-85
2022/09/13 06:06:01;;;;;;;12.75;2.95;;;;;;;35.40;19.83;98421.81;5075599;28;20101;-82
2022/09/13 06:08:28;;;;;;;14.20;2.80;;;;;;;35.90;19.08;98424.25;5093431;28;20028;-83
2022/09/13 06:11:12;;;;;;;15.00;2.80;;;;;;;36.12;18.87;98420.97;5093178;28;20039;-84
2022/09/13 06:13:38;;;;;;;10.40;2.53;;;;;;;36.63;18.34;98418.63;5058153;28;20028;-84
2022/09/13 06:16:05;;;;;;;20.17;2.75;;;;;;;36.90;18.25;98417.91;5093993;28;20056;-87
2022/09/13 06:18:30;;;;;;;;;;;;;;;37.07;18.22;98418.16;5093028;28;20032;-80
2022/09/13 06:21:01;;;;;;;9.02;2.40;;;;;;;37.27;17.53;98402.56;5073994;28;19912;-81
2022/09/13 06:23:28;;;;;;;16.50;2.58;;;;;;;37.44;17.50;98410.16;5074622;28;20047;-85
2022/09/13 06:26:04;;;;;;;16.23;2.30;;;;;;;37.61;16.77;98407.63;5075011;28;20107;-80
2022/09/13 06:28:30;;;;;;;8.65;2.15;;;;;;;37.77;16.96;98412.78;5075077;28;20119;-84
2022/09/13 06:31:00;;;;;;;14.95;2.85;;;;;;;37.82;16.96;98424.38;5075147;28;20032;-84
2022/09/13 06:33:26;;;;;;;9.82;2.33;;;;;;;37.90;17.06;98416.59;5092235;28;20124;-83
2022/09/13 06:35:52;;;;;;;11.15;2.65;;;;;;;37.78;17.90;98420.66;5075950;28;20035;-81
2022/09/13 06:38:17;;;;;;;10.27;3.10;;;;;;;37.70;17.75;98428.72;5093846;28;20483;-81
2022/09/13 06:40:43;;;;;;;14.07;4.10;;;;;;;37.79;17.69;98416.81;5057820;28;20035;-76
2022/09/13 06:43:09;;;;;;;12.77;3.90;;;;;;;37.81;18.08;98424.66;5076160;28;20035;-83
2022/09/13 06:45:36;;;;;;;14.45;4.15;;;;;;;37.89;17.39;98425.88;5074374;28;20025;-79
2022/09/13 06:48:02;;;;;;;17.98;4.63;;;;;;;37.84;17.88;98432.22;5079815;28;20045;-85
2022/09/13 06:50:28;;;;;;;20.83;4.85;;;;;;;37.88;16.58;98435.19;5069940;28;20029;-80
2022/09/13 06:52:57;;;;;;;11.85;4.45;;;;;;;37.88;17.06;98433.25;5080022;28;20031;-85
2022/09/13 06:55:23;;;;;;;20.33;3.97;;;;;;;37.90;16.75;98432.94;5077693;28;20706;-90
2022/09/13 06:57:58;;;;;;;15.02;4.70;;;;;;;37.91;17.04;98440.00;5072416;28;20139;-88
2022/09/13 07:00:23;;;;;;;12.23;4.45;;;;;;;37.92;16.53;98441.59;5072372;28;20450;-85
2022/09/13 07:02:52;;;;;;;13.43;4.43;;;;;;;38.02;16.67;98441.41;5071111;28;20039;-89
2022/09/13 07:05:21;;;;;;;9.07;3.50;;;;;;;38.05;16.78;98440.78;5067302;28;20473;-86
2022/09/13 07:07:48;;;;;;;11.55;3.05;;;;;;;38.13;15.98;98447.41;5074236;28;20021;-85
2022/09/13 07:10:17;;;;;;;8.52;2.50;;;;;;;38.11;16.96;98447.75;5083446;28;20029;-88
2022/09/13 07:12:44;;;;;;;11.68;2.70;;;;;;;38.22;15.92;98448.34;5094069;28;20563;-88
2022/09/13 07:15:10;;;;;;;;;;;;;;;38.23;16.43;98462.78;5069631;28;20131;-83
2022/09/13 07:17:35;;;;;;;8.07;2.03;;;;;;;38.28;15.85;98446.31;5064975;28;19991;-84
2022/09/13 07:20:01;;;;;;;5.60;2.00;;;;;;;38.32;16.29;98456.28;5048237;28;20043;-83
2022/09/13 07:22:27;;;;;;;6.32;2.58;;;;;;;38.31;15.37;98445.69;5075978;28;20802;-84
2022/09/13 07:24:53;;;;;;;4.45;1.63;;;;;;;38.23;15.11;98463.59;5072527;28;20495;-82
2022/09/13 07:27:18;;;;;;;9.25;2.13;;;;;;;38.01;15.22;98446.03;5073117;28;20072;-84
2022/09/13 07:29:44;;;;;;;5.30;2.05;;;;;;;38.08;15.33;98450.25;5061699;28;20028;-82
2022/09/13 07:32:09;;;;;;;5.95;2.10;;;;;;;38.18;15.36;98461.78;5074358;28;20480;-83
2022/09/13 07:34:40;;;;;;;6.57;2.38;;;;;;;38.20;15.67;98456.03;5065208;28;20044;-77
2022/09/13 07:37:05;;;;;;;6.85;2.42;;;;;;;37.98;16.25;98452.09;5062995;28;20020;-77
2022/09/13 07:39:31;;;;;;;8.40;2.72;;;;;;;37.82;16.46;98462.50;5065304;28;20021;-77
2022/09/13 07:41:56;;;;;;;4.80;2.25;;;;;;;37.71;16.59;98461.09;5076892;28;20043;-76
2022/09/13 07:44:22;;;;;;;5.85;2.42;;;;;;;37.73;16.73;98466.25;5075817;28;20032;-79
2022/09/13 07:46:47;;;;;;;4.72;2.25;;;;;;;37.59;16.65;98455.31;5093568;28;20052;-78
2022/09/13 07:49:17;;;;;;;8.30;2.05;;;;;;;37.68;16.62;98466.31;5079387;28;20067;-84
2022/09/13 07:51:43;;;;;;;7.55;1.70;;;;;;;37.79;16.32;98456.84;5063256;28;20028;-91
2022/09/13 07:54:13;;;;;;;8.05;1.95;;;;;;;38.02;15.74;98455.03;5076954;28;20035;-80
2022/09/13 07:56:40;;;;;;;10.57;1.75;;;;;;;38.16;15.59;98453.13;5091950;28;20042;-82
2022/09/13 07:59:06;;;;;;;3.88;1.60;;;;;;;38.32;15.43;98452.78;5076153;28;20028;-81
2022/09/13 08:01:37;;;;;;;4.25;1.50;;;;;;;38.52;15.59;98449.56;5060732;28;20036;-80
2022/09/13 08:04:04;;;;;;;4.78;1.58;;;;;;;38.70;15.00;98458.72;5059486;28;20020;-80
2022/09/13 08:06:30;;;;;;;9.82;1.73;;;;;;;38.91;15.03;98450.81;5093984;28;20514;-80
2022/09/13 08:08:56;;;;;;;5.23;1.40;;;;;;;39.05;14.74;98453.47;5060331;28;20457;-81
2022/09/13 08:11:43;;;;;;;3.00;1.30;;;;;;;39.14;14.70;98448.09;5059866;28;20262;-82
2022/09/13 08:14:11;;;;;;;4.90;1.50;;;;;;;39.33;14.60;98445.16;5093827;28;20036;-81
2022/09/13 08:16:38;;;;;;;3.33;1.40;;;;;;;39.48;14.21;98446.63;5076611;28;20224;-80
2022/09/13 08:19:04;;;;;;;4.22;1.30;;;;;;;39.30;13.98;98442.22;5093726;28;20054;-81
2022/09/13 08:21:36;;;;;;;3.17;1.40;;;;;;;39.36;13.93;98449.16;5076330;28;20491;-81
2022/09/13 08:24:02;;;;;;;5.15;1.90;;;;;;;39.43;14.29;98439.41;5075964;28;20453;-81
2022/09/13 08:26:28;;;;;;;2.42;1.52;;;;;;;39.51;13.85;98431.56;5077746;28;20133;-84
2022/09/13 08:28:55;;;;;;;7.63;1.75;;;;;;;39.50;14.89;98436.19;5060007;28;20044;-78
2022/09/13 08:31:21;;;;;;;3.22;1.30;;;;;;;39.40;14.31;98437.28;5085170;28;20032;-87
2022/09/13 08:33:48;;;;;;;6.32;1.50;;;;;;;39.50;14.58;98438.13;5055673;28;20033;-84
2022/09/13 08:36:15;;;;;;;2.72;1.40;;;;;;;39.52;14.48;98434.00;5073351;28;20040;-85
2022/09/13 08:38:48;;;;;;;5.32;1.42;;;;;;;39.72;13.87;98432.59;5056765;28;20032;-89
2022/09/13 08:41:25;;;;;;;7.20;1.50;;;;;;;38.97;14.86;98431.63;5083971;28;20048;-90
2022/09/13 08:44:16;;;;;;;2.95;1.85;;;;;;;39.43;14.41;98428.47;5085946;28;20028;-87
2022/09/13 08:46:45;;;;;;;3.50;1.60;;;;;;;39.59;13.73;98425.34;5044712;28;20129;-87
2022/09/13 08:49:28;;;;;;;4.13;1.50;;;;;;;39.61;13.74;98428.56;5055159;28;20121;-83
2022/09/13 08:51:55;;;;;;;2.85;1.45;;;;;;;38.21;14.83;98422.22;5057801;28;20048;-87
2022/09/13 08:54:21;;;;;;;2.78;1.30;;;;;;;37.46;15.45;98435.97;5055026;28;20029;-82
2022/09/13 08:57:05;;;;;;;8.10;1.33;;;;;;;36.82;16.30;98435.72;5055138;28;20526;-84
2022/09/13 08:59:46;;;;;;;3.28;1.50;;;;;;;36.12;16.66;98422.84;5072974;28;20035;-83
2022/09/13 09:02:39;;;;;;;4.82;1.67;;;;;;;36.39;16.50;98430.41;5070995;28;20578;-85
2022/09/13 09:05:21;;;;;;;3.50;1.50;;;;;;;35.40;17.01;98429.16;5076646;28;20037;-88
2022/09/13 09:08:11;;;;;;;2.80;1.40;;;;;;;34.69;18.15;98423.22;5071657;28;20499;-83
2022/09/13 09:10:41;;;;;;;3.65;1.40;;;;;;;34.19;18.30;98426.78;5085970;28;20013;-91
2022/09/13 09:13:44;;;;;;;3.78;1.30;;;;;;;33.67;19.08;98417.28;5087681;28;20042;-90
2022/09/13 09:16:14;;;;;;;7.05;1.65;;;;;;;33.15;19.94;98416.56;5069191;28;20477;-81
2022/09/13 09:18:42;;;;;;;4.05;1.10;;;;;;;32.79;20.35;98427.41;5071430;28;20077;-85
2022/09/13 09:21:20;;;;;;;3.17;1.40;;;;;;;32.40;21.27;98428.69;5071422;28;20032;-83
2022/09/13 09:23:51;;;;;;;6.85;1.52;;;;;;;31.93;21.97;98433.13;5040433;28;20029;-85
2022/09/13 09:26:28;;;;;;;5.63;1.40;;;;;;;31.55;22.50;98434.31;5038606;28;20035;-86
2022/09/13 09:29:14;;;;;;;5.85;1.70;;;;;;;31.16;23.68;98423.78;5071873;28;20036;-81
2022/09/13 09:32:11;;;;;;;4.13;1.50;;;;;;;30.96;23.97;98429.81;5074783;28;20067;-90
2022/09/13 09:34:56;;;;;;;3.65;1.10;;;;;;;30.70;23.83;98426.09;5084484;28;20040;-89
2022/09/13 09:37:28;;;;;;;6.65;1.50;;;;;;;30.56;23.74;98437.28;5105520;28;20032;-91
2022/09/13 09:40:05;;;;;;;2.63;1.30;;;;;;;30.48;23.85;98438.56;5098139;28;20028;-86
2022/09/13 09:42:36;;;;;;;9.07;1.60;;;;;;;30.41;23.53;98435.25;5060565;28;20092;-84
2022/09/13 09:45:23;;;;;;;3.10;1.40;;;;;;;30.34;23.63;98431.91;5075147;28;20024;-82
2022/09/13 09:47:49;;;;;;;8.40;1.33;;;;;;;30.25;23.59;98428.03;5074775;28;20059;-87
2022/09/13 09:50:23;;;;;;;2.90;1.10;;;;;;;30.23;23.67;98435.56;5077807;28;20036;-87
2022/09/13 09:53:00;;;;;;;3.85;1.30;;;;;;;30.18;23.26;98422.88;5090906;28;20038;-83
2022/09/13 09:55:27;;;;;;;;;;;;;;;30.24;23.34;98429.13;5099908;28;20044;-84
2022/09/13 09:57:57;;;;;;;6.97;1.00;;;;;;;30.23;22.92;98427.50;5094554;28;19916;-89
2022/09/13 10:00:38;;;;;;;5.53;0.90;;;;;;;30.17;22.65;98417.72;5078357;28;20521;-88
2022/09/13 10:03:26;;;;;;;2.65;1.10;;;;;;;30.18;22.81;98424.75;5077720;28;20027;-85
2022/09/13 10:06:17;;;;;;;2.60;0.90;;;;;;;30.01;23.17;98409.47;5098425;28;20063;-86
2022/09/13 10:08:47;;;;;;;2.13;1.10;;;;;;;30.04;23.47;98410.88;5093356;28;20028;-88
2022/09/13 10:11:12;;;;;;;2.03;0.90;;;;;;;29.99;23.48;98411.63;5076379;28;20050;-82
2022/09/13 10:13:38;;;;;;;2.33;1.10;;;;;;;29.97;23.76;98411.06;5090906;28;20471;-77
2022/09/13 10:16:22;;;;;;;2.40;1.20;;;;;;;30.11;23.03;98411.50;5090914;28;20028;-87
2022/09/13 10:18:48;;;;;;;2.35;1.13;;;;;;;30.36;22.92;98399.34;5063752;28;20807;-78
2022/09/13 10:21:17;;;;;;;2.50;1.13;;;;;;;30.64;22.57;98399.09;5060634;28;20032;-81
2022/09/13 10:23:43;;;;;;;3.42;1.17;;;;;;;30.92;22.07;98399.88;5078174;28;20487;-80
2022/09/13 10:26:13;;;;;;;2.17;1.10;;;;;;;31.15;22.13;98397.88;5060587;28;20068;-80
2022/09/13 10:29:17;;;;;;;4.35;1.10;;;;;;;31.17;21.73;98388.47;5044327;28;20044;-82
2022/09/13 10:31:44;;;;;;;6.72;1.30;;;;;;;30.88;22.22;98390.66;5008842;28;20028;-78
2022/09/13 10:34:27;;;;;;;2.97;1.17;;;;;;;30.85;21.84;98391.19;5001745;28;20032;-72
2022/09/13 10:36:56;;;;;;;4.60;1.30;;;;;;;30.67;21.98;98385.13;5015251;28;20127;-78
2022/09/13 10:39:52;;;;;;;3.15;1.00;;;;;;;30.30;22.22;98387.75;5010749;28;20052;-89
2022/09/13 10:42:23;;;;;;;7.15;1.17;;;;;;;30.00;21.77;98380.97;5044893;28;20053;-86
2022/09/13 10:45:06;;;;;;;2.75;1.20;;;;;;;29.95;22.52;98387.09;5006293;28;20041;-81
2022/09/13 10:47:42;;;;;;;2.40;1.10;;;;;;;30.12;22.88;98372.75;5035182;28;20060;-75
2022/09/13 10:50:30;;;;;;;6.28;1.30;;;;;;;30.08;22.00;98380.50;4994626;28;20038;-84
2022/09/13 10:52:57;;;;;;;9.50;1.10;;;;;;;30.11;22.11;98381.91;5022652;28;20095;-85
2022/09/13 10:55:54;;;;;;;5.07;1.20;;;;;;;30.11;20.66;98365.75;5003188;28;20493;-81
2022/09/13 10:58:21;;;;;;;;;;;;;;;30.26;21.19;98363.19;5104919;23;20561;-82
2022/09/13 11:00:56;;;;;;;3.47;1.42;;;;;;;30.00;22.46;98361.31;5064796;28;19934;-82
2022/09/13 11:03:22;;;;;;;4.72;1.27;;;;;;;29.88;22.29;98356.06;5090901;28;20024;-81
2022/09/13 11:06:21;;;;;;;10.85;1.27;;;;;;;29.90;21.81;98352.06;5081309;28;20039;-83
2022/09/13 11:09:30;;;;;;;4.35;1.30;;;;;;;29.75;21.81;98366.13;5083480;28;20074;-81
2022/09/13 11:12:40;;;;;;;1.85;0.95;;;;;;;29.84;21.83;98357.63;5093953;28;20115;-83
2022/09/13 11:15:19;;;;;;;2.42;1.13;;;;;;;29.75;21.99;98346.50;4990342;28;20035;-77
2022/09/13 11:18:19;;;;;;;2.50;0.93;;;;;;;29.42;22.88;98356.31;4969167;28;20030;-78
2022/09/13 11:20:47;;;;;;;4.05;0.88;;;;;;;29.42;22.95;98354.44;4987410;28;20032;-82
2022/09/13 11:23:34;;;;;;;3.25;1.10;;;;;;;29.46;23.50;98354.75;4974827;28;20042;-82
2022/09/13 11:26:16;;;;;;;3.70;1.00;;;;;;;29.23;22.58;98348.53;4995368;28;20541;-80
2022/09/13 11:28:56;;;;;;;9.02;2.88;;;;;;;29.21;23.77;98337.22;4967029;28;20057;-83
2022/09/13 11:31:32;;;;;;;5.35;2.30;;;;;;;29.19;23.80;98339.34;4961057;28;20057;-79
2022/09/13 11:34:36;;;;;;;4.40;1.58;;;;;;;29.23;24.64;98353.09;4988117;28;20042;-85
2022/09/13 11:37:17;;;;;;;6.32;1.30;;;;;;;29.27;26.15;98346.19;4988320;28;20038;-87
2022/09/13 11:39:49;;;;;;;6.22;2.80;;;;;;;29.24;24.85;98338.63;5002560;28;20034;-83
2022/09/13 11:46:00;;;;;;;3.92;1.25;;;;;;;29.32;24.73;98342.72;5005490;28;20056;-84
2022/09/13 11:48:46;;;;;;;6.40;1.13;;;;;;;29.32;23.48;98338.19;4976576;28;20125;-85
2022/09/13 11:51:30;;;;;;;4.05;1.05;;;;;;;29.47;22.80;98336.75;4960051;28;20504;-81
2022/09/13 11:54:17;;;;;;;1.33;0.95;;;;;;;29.67;23.52;98331.59;5045205;28;20041;-87
2022/09/13 11:56:51;;;;;;;2.00;0.75;;;;;;;29.64;22.20;98317.84;5138108;22;20020;-88
2022/09/13 12:00:01;;;;;;;1.40;0.88;;;;;;;29.81;22.75;98320.47;5068392;28;20049;-88